Time;durP1;ratioP1;P1;durP2;ratioP2;P2;SDS_P1;SDS_P2;PMS_P1;PMS_P2;Temp;Humidity;BMP_temperature;BMP_pressure;BME280_temperature;BME280_humidity;BME280_pressure;Samples;Min_cycle;Max_cycle;Signal;HPM_P1;HPM_P2
2022/12/09 00:00:15;;;;;;;62.47;17.23;;;2.80;99.90;;;;;;5042951;28;20025;-69
2022/12/09 00:02:41;;;;;;;71.88;17.73;;;2.90;99.90;;;;;;5020947;28;20040;-70
2022/12/09 00:05:07;;;;;;;71.60;19.00;;;2.90;99.90;;;;;;5063218;28;20911;-70
2022/12/09 00:07:36;;;;;;;59.65;19.38;;;2.90;99.90;;;;;;5032113;28;20090;-69
2022/12/09 00:10:03;;;;;;;85.88;19.55;;;3.00;99.90;;;;;;5033831;28;20021;-69
2022/12/09 00:12:29;;;;;;;58.40;18.38;;;3.10;99.90;;;;;;5028917;28;20038;-70
2022/12/09 00:14:55;;;;;;;58.33;19.45;;;3.10;99.90;;;;;;5020843;28;20041;-70
2022/12/09 00:17:20;;;;;;;58.53;19.13;;;3.20;99.90;;;;;;5032381;28;20376;-69
2022/12/09 00:19:46;;;;;;;74.38;20.80;;;3.20;99.90;;;;;;5029256;28;20034;-69
2022/12/09 00:22:15;;;;;;;61.80;21.65;;;3.30;99.90;;;;;;5029335;28;20114;-70
2022/12/09 00:24:41;;;;;;;65.43;20.38;;;3.30;99.90;;;;;;5028390;28;20128;-69
2022/12/09 00:27:07;;;;;;;62.03;20.13;;;3.40;99.90;;;;;;5037748;28;20121;-71
2022/12/09 00:29:33;;;;;;;53.67;20.33;;;3.40;99.90;;;;;;5024491;28;20041;-71
2022/12/09 00:32:03;;;;;;;51.08;19.10;;;3.50;99.90;;;;;;5028302;28;20491;-69
2022/12/09 00:34:31;;;;;;;50.30;18.55;;;3.40;99.90;;;;;;5037849;28;20021;-69
2022/12/09 00:36:57;;;;;;;51.45;18.15;;;3.50;99.90;;;;;;5035927;28;20028;-69
2022/12/09 00:39:22;;;;;;;43.05;16.38;;;3.50;99.90;;;;;;5023800;28;20036;-69
2022/12/09 00:41:50;;;;;;;37.95;15.95;;;3.50;99.90;;;;;;5024344;28;20017;-71
2022/12/09 00:44:16;;;;;;;40.63;15.85;;;3.50;99.90;;;;;;5034994;28;20032;-71
2022/12/09 00:46:41;;;;;;;43.38;17.25;;;3.50;99.90;;;;;;5027061;28;20038;-70
2022/12/09 00:49:07;;;;;;;44.67;17.42;;;3.50;99.90;;;;;;5035272;28;20071;-68
2022/12/09 00:51:32;;;;;;;36.42;16.27;;;3.50;99.90;;;;;;5034596;28;20068;-70
2022/12/09 00:53:59;;;;;;;32.42;15.13;;;3.50;99.90;;;;;;5035088;28;20040;-69
2022/12/09 00:56:28;;;;;;;40.35;15.73;;;3.40;99.90;;;;;;5037420;28;20021;-70
2022/12/09 00:58:56;;;;;;;30.00;12.75;;;3.40;99.90;;;;;;5030775;28;20485;-68
2022/12/09 01:01:22;;;;;;;34.28;13.82;;;3.30;99.90;;;;;;5034632;28;20510;-70
2022/12/09 01:03:48;;;;;;;35.40;14.98;;;3.20;99.90;;;;;;5037770;28;20032;-69
2022/12/09 01:06:18;;;;;;;32.13;14.82;;;3.20;99.90;;;;;;5032951;28;20144;-70
2022/12/09 01:08:44;;;;;;;36.75;15.45;;;3.00;99.90;;;;;;5031283;28;20029;-70
2022/12/09 01:11:14;;;;;;;35.28;15.27;;;3.00;99.90;;;;;;5032733;28;20030;-69
2022/12/09 01:13:40;;;;;;;42.40;17.98;;;2.90;99.90;;;;;;5023695;28;20037;-69
2022/12/09 01:16:14;;;;;;;36.25;15.82;;;2.80;99.90;;;;;;5029645;28;20024;-69
2022/12/09 01:18:40;;;;;;;38.78;17.05;;;2.70;99.90;;;;;;5019807;28;20048;-68
2022/12/09 01:21:06;;;;;;;36.88;16.67;;;2.60;99.90;;;;;;5020777;28;20018;-70
2022/12/09 01:23:32;;;;;;;40.60;17.20;;;2.60;99.90;;;;;;5035303;28;20009;-69
2022/12/09 01:26:04;;;;;;;37.65;15.52;;;2.60;99.90;;;;;;5034905;28;20075;-68
2022/12/09 01:28:30;;;;;;;32.00;13.77;;;2.50;99.90;;;;;;5031710;28;20032;-68
2022/12/09 01:30:55;;;;;;;34.72;14.93;;;2.50;99.90;;;;;;5047023;28;20026;-68
2022/12/09 01:33:21;;;;;;;33.65;16.42;;;2.40;99.90;;;;;;5037003;28;20451;-70
2022/12/09 01:35:46;;;;;;;40.67;17.08;;;2.30;99.90;;;;;;5035837;28;20025;-68
2022/12/09 01:38:12;;;;;;;37.03;15.75;;;2.30;99.90;;;;;;5039084;28;20033;-68
2022/12/09 01:40:45;;;;;;;44.53;17.80;;;2.20;99.90;;;;;;5044251;28;20048;-68
2022/12/09 01:43:20;;;;;;;43.30;17.10;;;2.20;99.90;;;;;;5025198;28;20056;-71
2022/12/09 01:45:46;;;;;;;51.13;19.77;;;2.20;99.90;;;;;;5044376;28;20064;-70
2022/12/09 01:48:17;;;;;;;44.08;18.23;;;2.20;99.90;;;;;;5028141;28;20064;-70
2022/12/09 01:50:57;;;;;;;47.72;18.38;;;2.20;99.90;;;;;;5014890;28;20478;-68
2022/12/09 01:53:27;;;;;;;47.63;18.50;;;2.10;99.90;;;;;;5040535;28;20025;-67
2022/12/09 01:55:56;;;;;;;45.42;17.95;;;2.10;99.90;;;;;;5049416;28;20021;-68
2022/12/09 01:58:22;;;;;;;49.45;20.85;;;2.10;99.90;;;;;;5042457;28;20349;-68
2022/12/09 02:00:47;;;;;;;50.22;20.65;;;2.10;99.90;;;;;;5040032;28;20056;-70
2022/12/09 02:03:13;;;;;;;55.70;21.52;;;2.10;99.90;;;;;;5024888;28;20056;-70
2022/12/09 02:05:39;;;;;;;69.90;21.20;;;2.10;99.90;;;;;;5040829;28;20579;-68
2022/12/09 02:08:17;;;;;;;60.15;21.65;;;2.10;99.90;;;;;;5037599;28;20024;-69
2022/12/09 02:11:10;;;;;;;46.05;17.55;;;2.10;99.90;;;;;;5039003;28;20449;-70
2022/12/09 02:14:03;;;;;;;49.90;19.45;;;2.10;99.90;;;;;;5027376;28;20043;-69
2022/12/09 02:16:41;;;;;;;54.88;19.75;;;2.00;99.90;;;;;;5038857;28;20791;-69
2022/12/09 02:19:41;;;;;;;56.33;21.15;;;2.10;99.90;;;;;;5051415;28;20033;-69
2022/12/09 02:22:09;;;;;;;47.20;18.45;;;2.00;99.90;;;;;;5022370;28;20507;-69
2022/12/09 02:25:02;;;;;;;56.90;22.02;;;2.10;99.90;;;;;;5043048;28;20021;-71
2022/12/09 02:27:39;;;;;;;55.42;20.65;;;2.10;99.90;;;;;;5024062;28;20087;-69
2022/12/09 02:30:22;;;;;;;56.08;20.35;;;2.00;99.90;;;;;;5020594;28;20113;-68
2022/12/09 02:32:56;;;;;;;60.90;21.30;;;2.00;99.90;;;;;;5045184;28;20445;-68
2022/12/09 02:35:31;;;;;;;55.45;19.20;;;2.10;99.90;;;;;;5029664;28;20045;-68
2022/12/09 02:38:02;;;;;;;56.42;19.10;;;2.10;99.90;;;;;;5038610;28;20044;-69
2022/12/09 02:40:55;;;;;;;63.45;21.73;;;2.00;99.90;;;;;;5026521;28;20034;-70
2022/12/09 02:43:26;;;;;;;56.50;21.60;;;2.10;99.90;;;;;;5041759;28;20035;-71
2022/12/09 02:45:54;;;;;;;64.07;21.20;;;2.00;99.90;;;;;;5049558;28;20075;-70
2022/12/09 02:48:24;;;;;;;55.97;19.88;;;2.00;99.90;;;;;;5047612;28;20072;-70
2022/12/09 02:50:51;;;;;;;72.00;24.55;;;2.00;99.90;;;;;;5043019;28;20096;-70
2022/12/09 02:53:17;;;;;;;57.85;22.17;;;2.00;99.90;;;;;;5024786;28;20092;-71
2022/12/09 02:55:45;;;;;;;65.22;23.60;;;2.00;99.90;;;;;;5040685;28;20036;-69
2022/12/09 02:58:11;;;;;;;59.05;22.67;;;2.00;99.90;;;;;;5043974;28;20017;-70
2022/12/09 03:00:39;;;;;;;62.88;22.00;;;2.00;99.90;;;;;;5038985;28;20468;-71
2022/12/09 03:03:12;;;;;;;67.95;23.48;;;2.00;99.90;;;;;;5025589;28;20096;-68
2022/12/09 03:06:05;;;;;;;67.78;25.35;;;2.00;99.90;;;;;;5023031;28;20079;-68
2022/12/09 03:08:47;;;;;;;66.22;23.95;;;1.90;99.90;;;;;;5038208;28;20107;-68
2022/12/09 03:11:16;;;;;;;68.13;24.80;;;1.90;99.90;;;;;;5038416;28;20017;-69
2022/12/09 03:13:58;;;;;;;59.88;22.05;;;1.90;99.90;;;;;;5033876;28;20363;-71
2022/12/09 03:16:35;;;;;;;67.82;22.40;;;1.90;99.90;;;;;;5036012;28;20019;-70
2022/12/09 03:19:27;;;;;;;60.90;23.27;;;1.90;99.90;;;;;;5030955;28;20076;-71
2022/12/09 03:22:03;;;;;;;68.45;22.55;;;1.90;99.90;;;;;;5040278;28;20078;-69
2022/12/09 03:24:37;;;;;;;69.10;23.95;;;2.00;99.90;;;;;;5037455;28;20022;-71
2022/12/09 03:27:10;;;;;;;63.40;22.90;;;2.00;99.90;;;;;;5033300;28;20017;-69
2022/12/09 03:29:41;;;;;;;68.20;24.05;;;2.00;99.90;;;;;;5036229;28;20028;-72
2022/12/09 03:32:10;;;;;;;67.72;23.65;;;2.00;99.90;;;;;;5041466;28;20036;-70
2022/12/09 03:34:41;;;;;;;62.90;23.75;;;2.00;99.90;;;;;;5039994;28;20060;-71
2022/12/09 03:37:09;;;;;;;67.32;23.80;;;2.10;99.90;;;;;;5031361;28;20021;-71
2022/12/09 03:39:39;;;;;;;59.67;23.48;;;2.10;99.90;;;;;;5026129;28;20022;-69
2022/12/09 03:42:14;;;;;;;71.28;24.60;;;2.10;99.90;;;;;;5041079;28;20047;-70
2022/12/09 03:44:52;;;;;;;66.70;23.27;;;2.20;99.90;;;;;;5048315;28;20038;-70
2022/12/09 03:47:18;;;;;;;60.25;23.02;;;2.20;99.90;;;;;;5025968;28;20030;-70
2022/12/09 03:49:43;;;;;;;63.90;22.75;;;2.20;99.90;;;;;;5027603;28;20036;-70
2022/12/09 03:52:23;;;;;;;69.85;23.67;;;2.20;99.90;;;;;;5019750;28;20044;-69
2022/12/09 03:54:55;;;;;;;58.38;20.85;;;2.20;99.90;;;;;;5041973;28;20041;-69
2022/12/09 03:57:21;;;;;;;;;;;2.20;99.90;;;;;;5023576;28;20025;-69
2022/12/09 03:59:54;;;;;;;55.15;21.13;;;2.20;99.90;;;;;;5035759;28;19901;-69
2022/12/09 04:02:20;;;;;;;63.75;23.25;;;2.20;99.90;;;;;;5034634;28;20069;-70
2022/12/09 04:04:46;;;;;;;62.55;23.23;;;2.20;99.90;;;;;;5045396;28;20010;-70
2022/12/09 04:07:11;;;;;;;62.30;22.23;;;2.20;99.90;;;;;;5044698;28;20031;-70
2022/12/09 04:09:37;;;;;;;61.05;23.25;;;2.20;99.90;;;;;;5035781;28;20097;-70
2022/12/09 04:12:03;;;;;;;59.85;23.08;;;2.10;99.90;;;;;;5030593;28;20107;-68
2022/12/09 04:14:28;;;;;;;65.63;24.05;;;2.20;99.90;;;;;;5034248;28;20087;-69
2022/12/09 04:16:54;;;;;;;74.50;25.23;;;2.20;99.90;;;;;;5037332;28;20112;-68
2022/12/09 04:19:19;;;;;;;61.70;22.65;;;2.20;99.90;;;;;;5038655;28;20078;-69
2022/12/09 04:21:45;;;;;;;68.03;24.55;;;2.10;99.90;;;;;;5044689;28;20028;-68
2022/12/09 04:24:11;;;;;;;92.00;25.65;;;2.10;99.90;;;;;;5043234;28;20036;-69
2022/12/09 04:26:37;;;;;;;64.00;20.23;;;2.20;99.90;;;;;;5042375;28;20087;-68
2022/12/09 04:29:03;;;;;;;89.88;23.52;;;2.30;99.90;;;;;;5036044;28;20453;-68
2022/12/09 04:31:29;;;;;;;137.23;26.48;;;2.30;99.90;;;;;;5034775;28;20025;-68
2022/12/09 04:33:54;;;;;;;745.78;169.75;;;2.20;99.90;;;;;;5041406;28;20072;-68
2022/12/09 04:36:20;;;;;;;294.42;37.65;;;2.30;99.90;;;;;;5034622;28;20048;-69
2022/12/09 04:38:46;;;;;;;80.95;19.77;;;2.30;99.90;;;;;;5029554;28;20025;-68
2022/12/09 04:41:13;;;;;;;112.95;20.45;;;2.30;99.90;;;;;;5033674;28;20040;-68
2022/12/09 04:43:39;;;;;;;111.35;15.93;;;2.30;99.90;;;;;;5031788;28;20033;-69
2022/12/09 04:46:09;;;;;;;87.18;18.25;;;2.30;99.90;;;;;;5035162;28;20099;-69
2022/12/09 04:48:36;;;;;;;82.65;19.67;;;2.20;99.90;;;;;;5036578;28;20018;-69
2022/12/09 04:51:01;;;;;;;127.82;15.38;;;2.20;99.90;;;;;;5035664;28;20038;-69
2022/12/09 04:53:27;;;;;;;64.15;12.52;;;2.20;99.90;;;;;;5051574;28;20138;-68
2022/12/09 04:56:11;;;;;;;80.55;16.73;;;2.10;99.90;;;;;;5036545;28;20057;-68
2022/12/09 04:58:36;;;;;;;201.40;30.13;;;2.10;99.90;;;;;;5031893;28;20030;-68
2022/12/09 05:01:11;;;;;;;55.72;14.38;;;2.00;99.90;;;;;;5027651;28;20018;-68
2022/12/09 05:03:37;;;;;;;80.30;14.82;;;2.00;99.90;;;;;;5034518;28;20465;-68
2022/12/09 05:06:05;;;;;;;118.10;16.10;;;2.00;99.90;;;;;;5030633;28;20105;-69
2022/12/09 05:08:31;;;;;;;109.97;18.98;;;1.90;99.90;;;;;;5034597;28;20014;-69
2022/12/09 05:10:57;;;;;;;83.78;14.90;;;1.90;99.90;;;;;;5035863;28;20087;-70
2022/12/09 05:13:25;;;;;;;113.05;17.38;;;1.90;99.90;;;;;;5032180;28;20346;-70
2022/12/09 05:15:52;;;;;;;103.68;16.70;;;1.90;99.90;;;;;;5033403;28;20045;-70
2022/12/09 05:18:17;;;;;;;92.25;15.02;;;1.90;99.90;;;;;;5031984;28;20022;-71
2022/12/09 05:20:43;;;;;;;83.07;16.25;;;1.90;99.90;;;;;;5032577;28;20103;-70
2022/12/09 05:23:08;;;;;;;80.53;14.77;;;2.00;99.90;;;;;;5036889;28;20037;-71
2022/12/09 05:25:34;;;;;;;99.32;16.02;;;1.90;99.90;;;;;;5037684;28;20021;-70
2022/12/09 05:28:00;;;;;;;230.93;27.95;;;2.00;99.90;;;;;;5040921;28;20068;-69
2022/12/09 05:30:25;;;;;;;69.90;14.55;;;2.00;99.90;;;;;;5033439;28;20408;-69
2022/12/09 05:32:51;;;;;;;81.15;15.77;;;2.00;99.90;;;;;;5027190;28;20361;-70
2022/12/09 05:35:16;;;;;;;100.13;19.02;;;2.00;99.90;;;;;;5030528;28;20033;-70
2022/12/09 05:37:42;;;;;;;82.97;16.17;;;2.00;99.90;;;;;;5032630;28;20496;-70
2022/12/09 05:40:08;;;;;;;111.55;19.80;;;2.00;99.90;;;;;;5030303;28;20029;-70
2022/12/09 05:42:33;;;;;;;80.53;18.10;;;2.10;99.90;;;;;;5029908;28;20044;-68
2022/12/09 05:44:59;;;;;;;135.20;22.70;;;2.10;99.90;;;;;;5029358;28;20056;-70
2022/12/09 05:47:24;;;;;;;202.57;25.55;;;2.10;99.90;;;;;;5031234;28;20366;-70
2022/12/09 05:49:50;;;;;;;179.10;24.30;;;2.10;99.90;;;;;;5033648;28;20033;-71
2022/12/09 05:52:15;;;;;;;124.25;19.27;;;2.20;99.90;;;;;;5033242;28;20035;-70
2022/12/09 05:54:41;;;;;;;112.22;18.08;;;2.20;99.90;;;;;;5038587;28;20033;-71
2022/12/09 05:57:09;;;;;;;201.68;24.48;;;2.20;99.90;;;;;;5033163;28;20028;-68
2022/12/09 05:59:35;;;;;;;157.60;21.75;;;2.20;99.90;;;;;;5030681;28;20104;-68
2022/12/09 06:02:00;;;;;;;177.95;22.45;;;2.20;99.90;;;;;;5032185;28;20108;-70
2022/12/09 06:04:26;;;;;;;103.45;18.00;;;2.20;99.90;;;;;;5031514;28;20024;-70
2022/12/09 06:06:51;;;;;;;112.85;20.38;;;2.20;99.90;;;;;;5037668;28;20017;-68
2022/12/09 06:09:17;;;;;;;93.03;21.02;;;2.20;99.90;;;;;;5035061;28;20461;-69
2022/12/09 06:11:42;;;;;;;89.47;15.85;;;2.20;99.90;;;;;;5034299;28;20375;-67
2022/12/09 06:14:10;;;;;;;145.00;21.98;;;2.20;99.90;;;;;;5035713;28;20038;-69
2022/12/09 06:16:36;;;;;;;134.40;19.67;;;2.10;99.90;;;;;;5025897;28;20026;-70
2022/12/09 06:19:03;;;;;;;147.77;21.98;;;2.20;99.90;;;;;;5036241;28;20021;-70
2022/12/09 06:21:28;;;;;;;134.35;20.27;;;2.10;99.90;;;;;;5032417;28;20025;-69
2022/12/09 06:23:54;;;;;;;105.47;18.90;;;2.20;99.90;;;;;;5031485;28;20083;-68
2022/12/09 06:26:25;;;;;;;99.97;19.77;;;2.20;99.90;;;;;;5027554;28;20766;-70
2022/12/09 06:28:52;;;;;;;134.60;22.60;;;2.10;99.90;;;;;;5029422;28;20017;-69
2022/12/09 06:31:18;;;;;;;112.15;18.50;;;2.10;99.90;;;;;;5029155;28;20033;-69
2022/12/09 06:33:44;;;;;;;123.65;23.25;;;2.00;99.90;;;;;;5022233;28;20087;-71
2022/12/09 06:36:10;;;;;;;117.05;18.67;;;2.00;99.90;;;;;;5024687;28;20032;-68
2022/12/09 06:38:35;;;;;;;68.05;13.32;;;2.00;99.90;;;;;;5028086;28;20350;-70
2022/12/09 06:41:09;;;;;;;161.38;21.92;;;1.90;99.90;;;;;;5027432;28;20037;-68
2022/12/09 06:43:35;;;;;;;109.90;19.63;;;1.90;99.90;;;;;;5029302;28;20100;-70
2022/12/09 06:46:00;;;;;;;436.42;49.53;;;1.80;99.90;;;;;;5028255;28;20069;-70
2022/12/09 06:48:26;;;;;;;85.63;17.08;;;1.80;99.90;;;;;;5028653;28;20052;-69
2022/12/09 06:50:52;;;;;;;196.32;25.70;;;1.80;99.90;;;;;;5029442;28;20022;-70
2022/12/09 06:53:17;;;;;;;84.78;15.60;;;1.80;99.90;;;;;;5031915;28;20037;-68
2022/12/09 06:55:43;;;;;;;101.30;19.17;;;1.80;99.90;;;;;;5026965;28;20103;-68
2022/12/09 06:58:09;;;;;;;107.30;20.20;;;1.80;99.90;;;;;;5029114;28;20461;-69
2022/12/09 07:00:34;;;;;;;66.20;14.85;;;1.80;99.90;;;;;;5031576;28;20480;-70
2022/12/09 07:03:00;;;;;;;90.85;18.10;;;1.70;99.90;;;;;;5032263;28;20064;-71
2022/12/09 07:05:25;;;;;;;116.85;18.02;;;1.70;99.90;;;;;;5032804;28;20026;-72
2022/12/09 07:07:51;;;;;;;152.15;24.55;;;1.70;99.90;;;;;;5031352;28;20032;-69
2022/12/09 07:10:18;;;;;;;89.38;17.15;;;1.70;99.90;;;;;;5035209;28;20040;-69
2022/12/09 07:12:43;;;;;;;108.20;21.25;;;1.80;99.90;;;;;;5030068;28;20056;-69
2022/12/09 07:15:09;;;;;;;155.82;25.33;;;1.70;99.90;;;;;;5032623;28;20445;-68
2022/12/09 07:17:35;;;;;;;105.88;18.48;;;1.80;99.90;;;;;;5031135;28;20418;-68
2022/12/09 07:20:00;;;;;;;66.65;15.82;;;1.70;99.90;;;;;;5031566;28;20104;-69
2022/12/09 07:22:26;;;;;;;112.55;19.85;;;1.70;99.90;;;;;;5024811;28;20478;-69
2022/12/09 07:24:51;;;;;;;111.40;20.10;;;1.70;99.90;;;;;;5031551;28;20389;-68
2022/12/09 07:27:17;;;;;;;79.55;19.10;;;1.70;99.90;;;;;;5024284;28;20052;-68
2022/12/09 07:29:42;;;;;;;115.85;21.92;;;1.70;99.90;;;;;;5031054;28;20021;-68
2022/12/09 07:32:09;;;;;;;386.13;54.38;;;1.70;99.90;;;;;;5028965;28;20442;-69
2022/12/09 07:34:35;;;;;;;92.07;20.30;;;1.80;99.90;;;;;;5037570;28;20116;-68
2022/12/09 07:37:01;;;;;;;77.70;17.60;;;1.80;99.90;;;;;;5031551;28;20767;-68
2022/12/09 07:39:27;;;;;;;80.97;18.02;;;1.80;99.90;;;;;;5052731;28;20067;-69
2022/12/09 07:41:55;;;;;;;84.55;18.90;;;1.70;99.90;;;;;;5049817;28;20017;-68
2022/12/09 07:44:21;;;;;;;81.28;20.50;;;1.70;99.90;;;;;;5047882;28;20032;-69
2022/12/09 07:46:47;;;;;;;105.22;23.30;;;1.70;99.90;;;;;;5036313;28;20042;-69
2022/12/09 07:49:13;;;;;;;98.03;21.48;;;1.70;99.90;;;;;;5038532;28;20036;-69
2022/12/09 07:51:38;;;;;;;102.05;20.90;;;1.80;99.90;;;;;;5027957;28;20500;-69
2022/12/09 07:54:04;;;;;;;95.13;21.67;;;1.80;99.90;;;;;;5030870;28;20036;-68
2022/12/09 07:56:30;;;;;;;63.13;18.40;;;1.90;99.90;;;;;;5041719;28;20025;-70
2022/12/09 07:58:57;;;;;;;75.20;20.10;;;1.80;99.90;;;;;;5050645;28;20070;-70
2022/12/09 08:01:28;;;;;;;74.18;20.05;;;1.80;99.90;;;;;;5034650;28;20033;-69
2022/12/09 08:03:54;;;;;;;70.28;17.45;;;1.90;99.90;;;;;;5040048;28;20052;-69
2022/12/09 08:06:23;;;;;;;67.25;19.05;;;1.90;99.90;;;;;;5032765;28;20070;-69
2022/12/09 08:08:48;;;;;;;55.25;15.50;;;2.00;99.90;;;;;;5030284;28;20013;-69
2022/12/09 08:11:22;;;;;;;62.63;15.57;;;2.00;99.90;;;;;;5020204;28;20045;-69
2022/12/09 08:13:49;;;;;;;64.03;16.45;;;1.90;99.90;;;;;;5020851;28;20076;-70
2022/12/09 08:16:17;;;;;;;72.75;18.73;;;1.90;99.90;;;;;;5030980;28;20484;-69
2022/12/09 08:18:45;;;;;;;96.38;19.08;;;1.90;99.90;;;;;;5051678;28;20021;-70
2022/12/09 08:21:13;;;;;;;130.50;22.02;;;1.90;99.90;;;;;;5025162;28;20029;-69
2022/12/09 08:23:39;;;;;;;50.83;13.85;;;1.90;99.90;;;;;;5037788;28;20517;-69
2022/12/09 08:26:05;;;;;;;65.15;19.25;;;2.00;99.90;;;;;;5042668;28;20113;-70
2022/12/09 08:28:31;;;;;;;69.88;17.15;;;2.10;99.90;;;;;;5031578;28;20025;-69
2022/12/09 08:30:57;;;;;;;71.45;18.45;;;2.20;99.90;;;;;;5027575;28;20037;-71
2022/12/09 08:33:23;;;;;;;89.22;20.05;;;2.30;99.90;;;;;;5043322;28;20085;-70
2022/12/09 08:35:49;;;;;;;69.45;18.40;;;2.30;99.90;;;;;;5029091;28;20041;-70
2022/12/09 08:38:14;;;;;;;129.68;23.95;;;2.40;99.90;;;;;;5042966;28;20084;-69
2022/12/09 08:40:40;;;;;;;164.77;29.73;;;2.40;99.90;;;;;;5037247;28;20400;-72
2022/12/09 08:43:09;;;;;;;70.00;19.23;;;2.50;99.90;;;;;;5046591;28;20033;-70
2022/12/09 08:45:37;;;;;;;57.65;18.50;;;2.60;99.90;;;;;;5020990;28;20432;-70
2022/12/09 08:48:03;;;;;;;85.65;20.65;;;2.70;99.90;;;;;;5022432;28;20026;-70
2022/12/09 08:50:29;;;;;;;65.68;19.75;;;2.70;99.90;;;;;;5035911;28;20461;-71
2022/12/09 08:53:07;;;;;;;76.07;20.67;;;2.80;99.90;;;;;;5020037;28;20033;-73
2022/12/09 08:55:38;;;;;;;51.80;17.60;;;2.90;99.90;;;;;;5032416;28;20025;-70
2022/12/09 08:58:06;;;;;;;58.50;16.75;;;2.90;99.90;;;;;;5024244;28;20014;-69
2022/12/09 09:00:41;;;;;;;52.65;16.85;;;2.80;99.90;;;;;;5038979;28;20013;-69
2022/12/09 09:03:07;;;;;;;57.65;17.17;;;2.80;99.90;;;;;;5042832;28;20434;-69
2022/12/09 09:05:33;;;;;;;50.28;15.88;;;2.80;99.90;;;;;;5037040;28;20068;-71
2022/12/09 09:07:59;;;;;;;44.13;13.90;;;2.70;99.90;;;;;;5024444;28;20026;-69
2022/12/09 09:10:24;;;;;;;61.88;17.20;;;2.60;99.90;;;;;;5033069;28;20034;-70
2022/12/09 09:12:50;;;;;;;57.55;17.70;;;2.60;99.90;;;;;;5020207;28;20040;-69
2022/12/09 09:15:16;;;;;;;50.20;16.70;;;2.70;99.90;;;;;;5032507;28;20128;-70
2022/12/09 09:17:41;;;;;;;50.95;17.15;;;2.80;99.90;;;;;;5038263;28;20025;-69
2022/12/09 09:20:07;;;;;;;47.85;16.75;;;2.90;99.90;;;;;;5041292;28;20021;-69
2022/12/09 09:22:33;;;;;;;41.45;13.30;;;3.00;99.90;;;;;;5043499;28;20090;-69
2022/12/09 09:24:59;;;;;;;63.58;16.58;;;2.90;99.90;;;;;;5020651;28;20029;-69
2022/12/09 09:27:25;;;;;;;46.80;15.20;;;2.90;99.90;;;;;;5046604;28;20560;-70
2022/12/09 09:29:50;;;;;;;87.07;17.67;;;2.90;99.90;;;;;;5036556;28;20053;-69
2022/12/09 09:32:16;;;;;;;53.03;17.05;;;2.90;99.90;;;;;;5040227;28;20017;-69
2022/12/09 09:34:42;;;;;;;40.85;14.82;;;2.90;99.90;;;;;;5046136;28;20041;-69
2022/12/09 09:37:07;;;;;;;44.28;16.20;;;2.90;99.90;;;;;;5035290;28;20022;-69
2022/12/09 09:39:33;;;;;;;978.60;168.05;;;3.00;99.90;;;;;;5039915;28;20025;-69
2022/12/09 09:42:04;;;;;;;50.20;17.40;;;3.10;99.90;;;;;;5029183;28;20029;-68
2022/12/09 09:44:35;;;;;;;52.00;18.20;;;3.30;99.90;;;;;;5042707;28;20079;-69
2022/12/09 09:47:10;;;;;;;53.45;18.13;;;3.40;99.90;;;;;;5051348;28;20060;-68
2022/12/09 09:49:51;;;;;;;50.33;18.95;;;3.60;99.90;;;;;;5039617;28;20017;-69
2022/12/09 09:52:20;;;;;;;49.25;18.02;;;3.70;99.90;;;;;;5036981;28;20471;-69
2022/12/09 09:54:46;;;;;;;43.92;18.02;;;3.80;99.90;;;;;;5039555;28;20453;-69
2022/12/09 09:57:27;;;;;;;45.47;18.05;;;3.90;99.90;;;;;;5053108;28;20025;-69
2022/12/09 10:00:17;;;;;;;46.97;17.70;;;4.10;99.90;;;;;;5042201;28;20017;-69
2022/12/09 10:02:55;;;;;;;41.80;16.45;;;4.30;99.90;;;;;;5040638;28;20021;-69
2022/12/09 10:05:23;;;;;;;35.42;15.27;;;4.50;99.90;;;;;;5051304;28;20048;-69
2022/12/09 10:07:55;;;;;;;43.70;17.52;;;4.60;99.90;;;;;;5041842;28;20028;-69
2022/12/09 10:10:56;;;;;;;40.58;17.40;;;4.60;99.90;;;;;;5042339;28;20025;-70
2022/12/09 10:13:35;;;;;;;44.55;15.65;;;4.60;99.90;;;;;;5050847;28;20116;-69
2022/12/09 10:16:15;;;;;;;35.83;15.50;;;4.60;99.90;;;;;;5043359;28;20040;-69
2022/12/09 10:18:53;;;;;;;37.97;16.58;;;4.70;99.90;;;;;;5040477;28;20064;-69
2022/12/09 10:21:20;;;;;;;44.08;16.83;;;4.70;99.90;;;;;;5050968;28;20373;-69
2022/12/09 10:23:47;;;;;;;40.45;14.88;;;4.70;99.90;;;;;;5036222;28;20098;-70
2022/12/09 10:26:24;;;;;;;41.65;16.25;;;4.50;99.90;;;;;;5037953;28;20030;-69
2022/12/09 10:29:00;;;;;;;43.25;17.65;;;4.40;99.90;;;;;;5045829;28;20027;-69
2022/12/09 10:31:27;;;;;;;46.80;18.90;;;4.30;99.90;;;;;;5022450;28;20468;-69
2022/12/09 10:33:52;;;;;;;40.55;15.63;;;4.20;99.90;;;;;;5048488;28;20365;-69
2022/12/09 10:36:24;;;;;;;41.00;16.17;;;4.10;99.90;;;;;;5041760;28;20013;-69
2022/12/09 10:38:50;;;;;;;50.28;17.90;;;3.80;99.90;;;;;;5049501;28;20060;-69
2022/12/09 10:44:29;;;;;;;51.42;20.65;;;3.70;99.90;;;;;;5053981;28;20019;-69
2022/12/09 10:47:01;;;;;;;48.95;19.80;;;3.70;99.90;;;;;;5038023;28;20045;-68
2022/12/09 10:49:27;;;;;;;;;;;3.70;99.90;;;;;;5022719;28;20023;-69
2022/12/09 10:51:53;;;;;;;47.17;17.30;;;3.70;99.90;;;;;;5046301;28;19905;-69
2022/12/09 10:54:35;;;;;;;47.05;19.50;;;3.70;99.90;;;;;;5041043;28;20449;-69
2022/12/09 10:57:03;;;;;;;44.53;15.02;;;3.80;99.90;;;;;;5037522;28;20031;-69
2022/12/09 10:59:30;;;;;;;46.75;18.20;;;3.90;99.90;;;;;;5044873;28;20040;-69
2022/12/09 11:01:59;;;;;;;41.15;16.35;;;4.00;99.90;;;;;;5034508;28;20044;-69
2022/12/09 11:04:29;;;;;;;45.45;18.63;;;4.20;99.90;;;;;;5037915;28;20029;-68
2022/12/09 11:07:13;;;;;;;43.75;18.85;;;4.50;99.90;;;;;;5037686;28;20029;-69
2022/12/09 11:09:45;;;;;;;39.72;16.73;;;4.80;99.90;;;;;;5029215;28;20036;-69
2022/12/09 11:12:28;;;;;;;42.15;18.10;;;5.00;99.90;;;;;;5042387;28;20458;-69
2022/12/09 11:15:24;;;;;;;42.25;16.70;;;5.10;99.90;;;;;;5048025;28;20048;-69
2022/12/09 11:18:17;;;;;;;39.70;16.80;;;5.20;99.90;;;;;;5027942;28;20433;-69
2022/12/09 11:20:56;;;;;;;40.85;17.33;;;5.20;99.90;;;;;;5037174;28;20044;-68
2022/12/09 11:23:22;;;;;;;42.38;18.35;;;5.10;99.90;;;;;;5049501;28;20021;-69
2022/12/09 11:25:55;;;;;;;37.75;14.85;;;5.10;99.90;;;;;;5040100;28;20028;-68
2022/12/09 11:28:29;;;;;;;47.63;18.85;;;4.80;99.90;;;;;;5041894;28;20051;-69
2022/12/09 11:31:00;;;;;;;48.05;19.95;;;4.70;99.90;;;;;;5049534;28;20479;-68
2022/12/09 11:33:39;;;;;;;43.92;18.20;;;4.80;99.90;;;;;;5033375;28;20025;-69
2022/12/09 11:36:09;;;;;;;37.00;14.45;;;4.90;99.90;;;;;;5042592;28;20059;-69
2022/12/09 11:38:42;;;;;;;42.35;17.52;;;4.80;99.90;;;;;;5039936;28;20025;-69
2022/12/09 11:41:08;;;;;;;45.67;18.65;;;4.70;99.90;;;;;;5047921;28;20772;-69
2022/12/09 11:43:55;;;;;;;45.03;17.90;;;4.70;99.90;;;;;;5040542;28;20087;-69
2022/12/09 11:46:24;;;;;;;45.00;17.48;;;4.80;99.90;;;;;;5041432;28;20045;-69
2022/12/09 11:49:04;;;;;;;45.83;18.90;;;4.90;99.90;;;;;;5048432;28;20159;-69
2022/12/09 11:51:35;;;;;;;40.75;17.67;;;4.90;99.90;;;;;;5022468;28;20029;-69
2022/12/09 11:54:17;;;;;;;47.55;18.88;;;4.90;99.90;;;;;;5044418;28;20033;-69
2022/12/09 11:56:43;;;;;;;41.03;18.02;;;4.90;99.90;;;;;;5047573;28;20021;-69
2022/12/09 11:59:18;;;;;;;49.85;18.77;;;5.10;99.90;;;;;;5036222;28;20346;-69
2022/12/09 12:02:00;;;;;;;46.63;19.77;;;5.10;99.90;;;;;;5045970;28;20062;-69
2022/12/09 12:04:46;;;;;;;;;;;5.10;99.90;;;;;;5044289;28;20027;-69
2022/12/09 12:07:38;;;;;;;45.25;17.40;;;5.10;99.90;;;;;;5035324;28;20388;-69
2022/12/09 12:10:12;;;;;;;40.08;17.05;;;5.10;99.90;;;;;;5043777;28;20021;-69
2022/12/09 12:12:49;;;;;;;48.65;20.23;;;5.30;99.90;;;;;;5046215;28;20032;-68
2022/12/09 12:15:25;;;;;;;37.58;14.93;;;5.60;99.90;;;;;;5035759;28;20107;-68
2022/12/09 12:17:59;;;;;;;44.63;18.52;;;6.00;99.90;;;;;;5040462;28;20067;-69
2022/12/09 12:20:54;;;;;;;43.45;18.42;;;6.30;99.90;;;;;;5040758;28;20033;-69
2022/12/09 12:23:34;;;;;;;45.05;15.75;;;6.40;99.90;;;;;;5048853;28;20082;-69
2022/12/09 12:26:22;;;;;;;40.22;17.17;;;6.70;99.90;;;;;;5041312;28;20401;-69
2022/12/09 12:29:05;;;;;;;37.22;17.45;;;6.90;99.90;;;;;;5037047;28;20037;-69
2022/12/09 12:31:53;;;;;;;39.80;17.30;;;7.10;99.90;;;;;;5016628;28;20409;-68
2022/12/09 12:34:39;;;;;;;39.35;17.05;;;7.50;99.90;;;;;;5043310;28;20064;-68
2022/12/09 12:37:37;;;;;;;44.15;17.98;;;7.80;99.90;;;;;;5035600;28;20017;-68
2022/12/09 12:40:06;;;;;;;37.53;17.27;;;8.30;99.90;;;;;;5043320;28;20033;-68
2022/12/09 12:46:16;;;;;;;31.90;15.25;;;8.90;99.90;;;;;;5024492;28;20094;-68
2022/12/09 12:49:09;;;;;;;32.47;13.80;;;9.00;99.90;;;;;;5037233;28;20518;-68
2022/12/09 12:51:56;;;;;;;36.92;15.00;;;9.20;99.90;;;;;;5022862;28;20049;-68
2022/12/09 12:54:40;;;;;;;33.90;15.07;;;9.40;99.90;;;;;;5040645;28;20643;-67
2022/12/09 12:57:32;;;;;;;30.80;12.57;;;9.50;99.90;;;;;;5048424;28;20127;-67